createdAt,value
2019-02-16T00:02:12.197Z,7.13
2019-02-16T00:07:18.033Z,4.93
2019-02-16T00:12:23.549Z,5.10
2019-02-16T00:17:29.019Z,3.77
2019-02-16T00:22:34.519Z,5.37
2019-02-16T00:27:39.954Z,5.22
2019-02-16T00:32:48.205Z,4.20
2019-02-16T00:37:53.924Z,5.60
2019-02-16T00:42:59.505Z,4.70
2019-02-16T00:48:05.108Z,5.37
2019-02-16T00:53:10.667Z,5.17
2019-02-16T00:58:16.082Z,4.57
2019-02-16T01:03:21.451Z,6.63
2019-02-16T01:08:26.906Z,4.50
2019-02-16T01:13:32.661Z,7.47
2019-02-16T01:18:38.232Z,5.07
2019-02-16T01:23:43.596Z,4.60
2019-02-16T01:28:48.922Z,3.77
2019-02-16T01:33:54.473Z,6.03
2019-02-16T01:38:59.978Z,8.00
2019-02-16T01:44:06.339Z,7.20
2019-02-16T01:49:11.717Z,5.53
2019-02-16T01:54:17.116Z,3.63
2019-02-16T01:59:22.604Z,4.60
2019-02-16T02:04:28.452Z,5.57
2019-02-16T02:09:33.898Z,6.77
2019-02-16T02:14:39.358Z,5.27
2019-02-16T02:19:44.726Z,5.20
2019-02-16T02:24:50.197Z,4.77
2019-02-16T02:29:55.697Z,4.73
2019-02-16T02:35:01.217Z,4.53
2019-02-16T02:45:33.309Z,5.43
2019-02-16T02:50:38.742Z,5.33
2019-02-16T02:55:44.323Z,5.13
2019-02-16T03:00:49.888Z,4.80
2019-02-16T03:05:55.311Z,5.30
2019-02-16T03:11:00.793Z,5.57
2019-02-16T03:16:06.378Z,5.13
2019-02-16T03:21:11.836Z,5.73
2019-02-16T03:26:29.227Z,6.23
2019-02-16T03:31:52.476Z,5.47
2019-02-16T03:37:15.199Z,4.67
2019-02-16T03:42:20.636Z,4.77
2019-02-16T03:47:26.288Z,3.57
2019-02-16T03:52:31.745Z,5.17
2019-02-16T03:57:37.121Z,3.70
2019-02-16T04:02:42.541Z,4.50
2019-02-16T04:07:48.080Z,4.33
2019-02-16T04:12:53.466Z,4.23
2019-02-16T04:17:59.104Z,4.80
2019-02-16T04:23:04.506Z,4.10
2019-02-16T04:28:10.046Z,4.10
2019-02-16T04:33:15.434Z,4.73
2019-02-16T04:38:20.911Z,4.70
2019-02-16T04:43:26.324Z,3.97
2019-02-16T04:48:31.939Z,3.97
2019-02-16T04:53:37.270Z,4.03
2019-02-16T04:58:42.851Z,4.13
2019-02-16T05:03:48.338Z,2.90
2019-02-16T05:08:54.056Z,4.03
2019-02-16T05:13:59.529Z,3.43
2019-02-16T05:19:05.113Z,4.03
2019-02-16T05:24:10.541Z,6.27
2019-02-16T05:29:16.029Z,6.17
2019-02-16T05:34:21.469Z,3.63
2019-02-16T05:39:26.997Z,3.50
2019-02-16T05:44:32.734Z,3.47
2019-02-16T05:49:38.348Z,5.13
2019-02-16T05:54:43.741Z,8.30
2019-02-16T05:59:49.358Z,6.03
2019-02-16T06:04:54.798Z,6.07
2019-02-16T06:10:00.324Z,5.33
2019-02-16T06:15:07.053Z,4.20
2019-02-16T06:20:12.643Z,4.53
2019-02-16T06:25:18.377Z,5.60
2019-02-16T06:30:23.955Z,5.07
2019-02-16T06:35:34.106Z,6.90
2019-02-16T06:40:41.072Z,6.28
2019-02-16T06:45:46.841Z,6.83
2019-02-16T06:50:52.261Z,3.57
2019-02-16T07:01:13.868Z,5.23
2019-02-16T07:06:19.354Z,5.37
2019-02-16T07:11:24.904Z,8.23
2019-02-16T07:16:39.086Z,7.90
2019-02-16T07:21:44.647Z,6.33
2019-02-16T07:26:50.169Z,7.00
2019-02-16T07:31:55.595Z,8.80
2019-02-16T07:37:01.144Z,6.60
2019-02-16T07:42:06.505Z,6.23
2019-02-16T07:47:20.355Z,5.43
2019-02-16T07:52:34.101Z,4.53
2019-02-16T07:57:49.490Z,4.45
2019-02-16T08:02:59.096Z,4.00
2019-02-16T08:08:09.918Z,3.33
2019-02-16T08:13:29.701Z,3.20
2019-02-16T08:18:44.106Z,2.80
2019-02-16T08:23:58.111Z,2.60
2019-02-16T08:29:20.803Z,2.40
2019-02-16T08:34:35.676Z,2.65
2019-02-16T08:39:49.065Z,2.67
2019-02-16T08:45:00.302Z,1.67
2019-02-16T08:50:24.969Z,2.43
2019-02-16T08:55:39.161Z,2.30
2019-02-16T09:00:56.116Z,1.80
2019-02-16T09:06:10.114Z,2.30
2019-02-16T09:11:29.530Z,2.80
2019-02-16T09:16:43.119Z,3.47
2019-02-16T09:21:57.702Z,3.57
2019-02-16T09:27:11.229Z,4.60
2019-02-16T09:32:32.045Z,6.83
2019-02-16T09:37:48.775Z,6.20
2019-02-16T09:43:03.699Z,7.47
2019-02-16T09:48:23.283Z,5.70
2019-02-16T09:53:38.124Z,6.08
2019-02-16T09:58:50.715Z,6.25
2019-02-16T10:04:12.060Z,5.60
2019-02-16T10:09:23.615Z,8.60
2019-02-16T10:14:37.129Z,7.20
2019-02-16T10:19:52.480Z,11.80
2019-02-16T10:25:06.130Z,4.97
2019-02-16T10:30:20.030Z,7.27
2019-02-16T10:35:31.095Z,5.27
2019-02-16T10:40:49.547Z,5.67
2019-02-16T10:46:04.108Z,11.10
2019-02-16T10:51:17.150Z,7.50
2019-02-16T10:56:32.187Z,5.37
2019-02-16T11:01:48.148Z,4.57
2019-02-16T11:06:59.170Z,5.23
2019-02-16T11:12:13.108Z,5.00
2019-02-16T11:17:29.010Z,4.00
2019-02-16T11:22:43.782Z,6.23
2019-02-16T11:27:57.668Z,5.13
2019-02-16T11:33:09.593Z,4.33
2019-02-16T11:38:27.107Z,7.87
2019-02-16T11:43:38.452Z,6.80
2019-02-16T11:48:49.902Z,9.40
2019-02-16T11:54:10.048Z,5.63
2019-02-16T11:59:24.503Z,7.97
2019-02-16T12:04:44.099Z,6.53
2019-02-16T12:09:59.379Z,6.37
2019-02-16T12:15:14.120Z,12.50
2019-02-16T12:20:33.593Z,5.87
2019-02-16T12:25:45.361Z,8.67
2019-02-16T12:30:59.160Z,11.37
2019-02-16T12:36:13.119Z,8.77
2019-02-16T12:41:26.545Z,11.77
2019-02-16T12:46:40.142Z,8.93
2019-02-16T12:52:04.501Z,5.67
2019-02-16T12:57:16.002Z,6.53
2019-02-16T13:02:31.062Z,4.70
2019-02-16T13:07:46.249Z,8.83
2019-02-16T13:13:03.064Z,8.65
2019-02-16T13:18:17.059Z,8.43
2019-02-16T13:23:30.505Z,5.50
2019-02-16T13:28:45.785Z,7.15
2019-02-16T13:33:56.638Z,5.50
2019-02-16T13:39:12.741Z,6.70
2019-02-16T13:44:27.058Z,11.50
2019-02-16T13:49:38.438Z,5.90
2019-02-16T13:54:52.210Z,7.83
2019-02-16T14:00:05.982Z,11.27
2019-02-16T14:05:22.277Z,10.67
2019-02-16T14:10:35.441Z,7.83
2019-02-16T14:15:49.001Z,7.00
2019-02-16T14:20:54.661Z,8.63
2019-02-16T14:26:00.371Z,9.23
2019-02-16T14:31:08.983Z,9.53
2019-02-16T14:36:14.560Z,9.87
2019-02-16T14:41:20.298Z,7.97
2019-02-16T14:46:28.660Z,8.67
2019-02-16T14:51:34.359Z,8.13
2019-02-16T14:56:39.818Z,6.58
2019-02-16T15:01:45.520Z,8.47
2019-02-16T15:06:51.261Z,8.77
2019-02-16T15:11:56.761Z,8.77
2019-02-16T15:17:02.219Z,5.87
2019-02-16T15:22:07.821Z,4.83
2019-02-16T15:27:13.359Z,6.23
2019-02-16T15:32:18.924Z,4.17
2019-02-16T15:37:26.803Z,5.07
2019-02-16T15:42:32.278Z,4.87
2019-02-16T15:47:37.718Z,4.27
2019-02-16T15:52:45.512Z,3.52
2019-02-16T15:57:51.358Z,3.80
2019-02-16T16:02:57.063Z,4.30
2019-02-16T16:08:11.098Z,5.60
2019-02-16T16:13:25.141Z,3.83
2019-02-16T16:18:39.120Z,4.57
2019-02-16T16:23:53.400Z,3.33
2019-02-16T16:29:10.858Z,3.03
2019-02-16T16:34:24.140Z,3.47
2019-02-16T16:39:39.137Z,3.30
2019-02-16T16:44:53.082Z,4.17
2019-02-16T16:50:18.172Z,5.13
2019-02-16T16:55:30.926Z,7.30
2019-02-16T17:00:47.810Z,7.27
2019-02-16T17:06:02.138Z,6.27
2019-02-16T17:11:19.058Z,3.57
2019-02-16T17:16:33.281Z,4.83
2019-02-16T17:21:47.077Z,5.10
2019-02-16T17:27:00.043Z,5.10
2019-02-16T17:32:14.720Z,4.53
2019-02-16T17:37:29.040Z,6.13
2019-02-16T17:42:49.860Z,6.40
2019-02-16T17:48:04.138Z,5.50
2019-02-16T17:53:19.381Z,8.43
2019-02-16T17:58:29.941Z,6.03
2019-02-16T18:03:54.319Z,4.63
2019-02-16T18:09:17.938Z,5.63
2019-02-16T18:14:32.041Z,5.97
2019-02-16T18:19:42.858Z,6.43
2019-02-16T18:25:07.361Z,6.40
2019-02-16T18:30:22.163Z,7.27
2019-02-16T18:35:36.621Z,7.97
2019-02-16T18:40:50.183Z,5.57
2019-02-16T18:46:04.217Z,7.77
2019-02-16T18:51:28.822Z,8.20
2019-02-16T18:56:53.344Z,8.83
2019-02-16T19:02:10.806Z,7.83
2019-02-16T19:07:25.143Z,7.73
2019-02-16T19:12:44.735Z,7.80
2019-02-16T19:17:58.360Z,8.23
2019-02-16T19:23:13.777Z,11.07
2019-02-16T19:28:27.587Z,11.03
2019-02-16T19:33:43.834Z,9.73
2019-02-16T19:39:01.896Z,10.47
2019-02-16T19:44:17.917Z,8.40
2019-02-16T19:49:32.137Z,11.77
2019-02-16T19:54:52.518Z,10.63
2019-02-16T20:00:06.101Z,11.27
2019-02-16T20:05:31.448Z,11.57
2019-02-16T20:10:56.057Z,7.17
2019-02-16T20:16:10.097Z,9.53
2019-02-16T20:21:32.346Z,8.90
2019-02-16T20:26:46.056Z,10.60
2019-02-16T20:32:06.193Z,8.63
2019-02-16T20:37:20.206Z,9.07
2019-02-16T20:42:33.534Z,9.73
2019-02-16T20:47:57.844Z,12.37
2019-02-16T20:53:13.077Z,10.67
2019-02-16T20:58:27.001Z,9.20
2019-02-16T21:03:41.009Z,8.23
2019-02-16T21:08:55.686Z,9.33
2019-02-16T21:14:19.986Z,7.63
2019-02-16T21:19:39.599Z,8.70
2019-02-16T21:24:51.180Z,8.33
2019-02-16T21:30:06.117Z,7.40
2019-02-16T21:35:20.101Z,6.47
2019-02-16T21:40:34.044Z,9.27
2019-02-16T21:45:52.129Z,9.60
2019-02-16T21:51:06.020Z,8.87
2019-02-16T21:56:20.062Z,8.40
2019-02-16T22:01:34.122Z,8.83
2019-02-16T22:06:53.452Z,9.03
2019-02-16T22:12:07.089Z,8.53
2019-02-16T22:17:12.523Z,9.20
2019-02-16T22:22:18.019Z,8.87
2019-02-16T22:27:23.865Z,7.27
2019-02-16T22:32:29.535Z,9.05
2019-02-16T22:37:35.017Z,8.10
2019-02-16T22:42:40.544Z,8.17
2019-02-16T22:47:46.034Z,9.40
2019-02-16T22:52:51.566Z,7.80
2019-02-16T22:57:57.076Z,8.33
2019-02-16T23:03:02.656Z,8.20
2019-02-16T23:08:08.261Z,7.50
2019-02-16T23:13:13.684Z,8.73
2019-02-16T23:18:19.437Z,8.75
2019-02-16T23:23:24.883Z,8.37
2019-02-16T23:28:38.635Z,7.33
2019-02-16T23:33:37.646Z,7.77
2019-02-16T23:38:43.039Z,6.50
2019-02-16T23:43:48.507Z,7.67
2019-02-16T23:48:53.987Z,8.80
2019-02-16T23:53:59.516Z,7.60
2019-02-16T23:59:05.152Z,7.57
